CLYO2: Little River nr Cloudy 5ENE

Data processed at Sun Sep 23 2018 22:02


All information presented herein is the property of the government of the United States of America and may be revised or deleted at any time without prior notice.
Dissemination of this information without the expressed written consent of the Public Affairs Office, Tulsa District U.S. Army Corps of Engineers is strictly prohibited.
These data are gathered electronically and, as presented, have not undergone any form of quality control. These data are not guaranteed to be valid or correct.
Go to home page.
Go to station list.
Go to home page.

Downstream station:


Previous Day
Next Day
Current Day
    
SHEF ID:       CLYO2     Little River nr Cloudy 5ENE
STATION TYPE:  

               PRECIP     STAGE  RIV-FLOW   VOLTAGE  BAT-LOAD
                   in        ft       cfs      volt      volt
              Ccp-Rev   Ccp-Rev   Ccp-Rev   Ccp-Rev   Ccp-Rev
(US/Central)
09/23 00:00      0.00     13.72     11920     12.54     12.48
09/23 01:00      0.00     13.25     11167     12.54     12.48
09/23 02:00      0.02     12.72     10319     12.54     12.48
09/23 03:00      0.00     12.12      9358     12.54     12.48
09/23 04:00      0.00     11.45      8285     12.54     12.48
09/23 05:00      0.00     10.84      7308     12.60     12.48
09/23 06:00      0.00     10.36      6540     12.60     12.48
09/23 07:00      0.03      9.92      5835     12.54     12.48
09/23 08:00      0.23      9.67      5517     12.60     12.48
09/23 09:00      0.00      9.38      5193     12.60     12.48
09/23 10:00      0.01      9.10      4880     12.65     12.54
09/23 11:00      0.01      9.20      4992     13.00     12.65
09/23 12:00      0.00      9.49      5316     13.07     12.95
09/23 13:00      0.00      9.55      5383     13.18     13.07
09/23 14:00      0.22      9.63      5472     13.12     13.07
09/23 15:00      0.04      9.62      5461     13.18     13.07
09/23 16:00      0.00      9.57      5405     13.24     13.12
09/23 17:00      0.00      9.37      5182     13.12     13.12
09/23 18:00      0.00      9.12      4902     13.00     13.00
09/23 19:00      0.00      8.89      4645     12.89     12.89
09/23 20:00      0.00      8.75      4489     12.77     12.77
09/23 21:00      0.00      8.61      4332     12.77     12.71
09/23 22:00      ----      ----      ----      ----      ----
09/23 23:00      ----      ----      ----      ----      ----